sensor_id;sensor_type;location;lat;lon;timestamp;P1;durP1;ratioP1;P2;durP2;ratioP2
56911;SDS011;42800;53.928;27.662;2023-04-24T00:01:13;8.95;;;5.15;;
56911;SDS011;42800;53.928;27.662;2023-04-24T00:03:40;8.70;;;4.53;;
56911;SDS011;42800;53.928;27.662;2023-04-24T00:06:06;7.68;;;4.68;;
56911;SDS011;42800;53.928;27.662;2023-04-24T00:08:33;9.20;;;5.10;;
56911;SDS011;42800;53.928;27.662;2023-04-24T00:10:59;16.58;;;4.82;;
56911;SDS011;42800;53.928;27.662;2023-04-24T00:13:25;12.02;;;4.75;;
56911;SDS011;42800;53.928;27.662;2023-04-24T00:15:50;9.88;;;4.55;;
56911;SDS011;42800;53.928;27.662;2023-04-24T00:18:16;7.85;;;4.63;;
56911;SDS011;42800;53.928;27.662;2023-04-24T00:20:43;10.73;;;5.30;;
56911;SDS011;42800;53.928;27.662;2023-04-24T00:23:09;13.57;;;4.35;;
56911;SDS011;42800;53.928;27.662;2023-04-24T00:25:35;9.23;;;4.68;;
56911;SDS011;42800;53.928;27.662;2023-04-24T00:28:01;8.65;;;4.20;;
56911;SDS011;42800;53.928;27.662;2023-04-24T00:30:27;11.60;;;4.97;;
56911;SDS011;42800;53.928;27.662;2023-04-24T00:32:53;13.43;;;4.90;;
56911;SDS011;42800;53.928;27.662;2023-04-24T00:35:19;7.85;;;4.15;;
56911;SDS011;42800;53.928;27.662;2023-04-24T00:37:46;7.68;;;4.32;;
56911;SDS011;42800;53.928;27.662;2023-04-24T00:40:12;11.95;;;3.88;;
56911;SDS011;42800;53.928;27.662;2023-04-24T00:42:38;10.82;;;4.53;;
56911;SDS011;42800;53.928;27.662;2023-04-24T00:45:05;4.97;;;3.22;;
56911;SDS011;42800;53.928;27.662;2023-04-24T00:47:32;8.50;;;4.07;;
56911;SDS011;42800;53.928;27.662;2023-04-24T00:49:58;11.85;;;4.68;;
56911;SDS011;42800;53.928;27.662;2023-04-24T00:52:26;7.30;;;3.90;;
56911;SDS011;42800;53.928;27.662;2023-04-24T00:54:54;7.18;;;4.85;;
56911;SDS011;42800;53.928;27.662;2023-04-24T00:57:20;7.50;;;4.30;;
56911;SDS011;42800;53.928;27.662;2023-04-24T00:59:46;6.28;;;3.97;;
56911;SDS011;42800;53.928;27.662;2023-04-24T01:02:12;10.27;;;4.38;;
56911;SDS011;42800;53.928;27.662;2023-04-24T01:04:39;13.95;;;5.20;;
56911;SDS011;42800;53.928;27.662;2023-04-24T01:07:05;10.68;;;4.00;;
56911;SDS011;42800;53.928;27.662;2023-04-24T01:09:35;9.73;;;4.13;;
56911;SDS011;42800;53.928;27.662;2023-04-24T01:12:03;6.57;;;3.67;;
56911;SDS011;42800;53.928;27.662;2023-04-24T01:14:29;6.72;;;4.40;;
56911;SDS011;42800;53.928;27.662;2023-04-24T01:16:56;6.72;;;3.63;;
56911;SDS011;42800;53.928;27.662;2023-04-24T01:19:22;8.25;;;3.80;;
56911;SDS011;42800;53.928;27.662;2023-04-24T01:21:49;9.75;;;4.78;;
56911;SDS011;42800;53.928;27.662;2023-04-24T01:24:19;5.57;;;3.75;;
56911;SDS011;42800;53.928;27.662;2023-04-24T01:26:45;10.18;;;4.47;;
56911;SDS011;42800;53.928;27.662;2023-04-24T01:29:11;7.38;;;3.90;;
56911;SDS011;42800;53.928;27.662;2023-04-24T01:31:37;6.22;;;3.58;;
56911;SDS011;42800;53.928;27.662;2023-04-24T01:34:04;7.18;;;3.80;;
56911;SDS011;42800;53.928;27.662;2023-04-24T01:36:31;8.73;;;3.83;;
56911;SDS011;42800;53.928;27.662;2023-04-24T01:38:59;7.28;;;4.25;;
56911;SDS011;42800;53.928;27.662;2023-04-24T01:41:26;10.80;;;4.03;;
56911;SDS011;42800;53.928;27.662;2023-04-24T01:43:52;11.05;;;4.47;;
56911;SDS011;42800;53.928;27.662;2023-04-24T01:46:19;5.85;;;3.90;;
56911;SDS011;42800;53.928;27.662;2023-04-24T01:48:45;6.40;;;3.85;;
56911;SDS011;42800;53.928;27.662;2023-04-24T01:51:11;11.40;;;4.25;;
56911;SDS011;42800;53.928;27.662;2023-04-24T01:53:37;7.07;;;4.03;;
56911;SDS011;42800;53.928;27.662;2023-04-24T01:56:03;6.45;;;3.55;;
56911;SDS011;42800;53.928;27.662;2023-04-24T01:58:30;10.65;;;4.07;;
56911;SDS011;42800;53.928;27.662;2023-04-24T02:00:57;9.98;;;3.70;;
56911;SDS011;42800;53.928;27.662;2023-04-24T02:03:23;10.02;;;4.25;;
56911;SDS011;42800;53.928;27.662;2023-04-24T02:05:50;7.07;;;3.70;;
56911;SDS011;42800;53.928;27.662;2023-04-24T02:08:16;14.57;;;3.90;;
56911;SDS011;42800;53.928;27.662;2023-04-24T02:10:42;4.88;;;3.20;;
56911;SDS011;42800;53.928;27.662;2023-04-24T02:13:08;6.55;;;3.63;;
56911;SDS011;42800;53.928;27.662;2023-04-24T02:15:34;8.43;;;4.32;;
56911;SDS011;42800;53.928;27.662;2023-04-24T02:18:01;12.50;;;4.65;;
56911;SDS011;42800;53.928;27.662;2023-04-24T02:20:27;5.90;;;3.70;;
56911;SDS011;42800;53.928;27.662;2023-04-24T02:22:53;6.38;;;3.60;;
56911;SDS011;42800;53.928;27.662;2023-04-24T02:25:19;8.05;;;3.88;;
56911;SDS011;42800;53.928;27.662;2023-04-24T02:27:45;7.18;;;3.67;;
56911;SDS011;42800;53.928;27.662;2023-04-24T02:30:11;17.33;;;5.22;;
56911;SDS011;42800;53.928;27.662;2023-04-24T02:32:38;8.00;;;3.90;;
56911;SDS011;42800;53.928;27.662;2023-04-24T02:35:04;10.07;;;4.05;;
56911;SDS011;42800;53.928;27.662;2023-04-24T02:37:31;9.40;;;4.20;;
56911;SDS011;42800;53.928;27.662;2023-04-24T02:39:57;7.05;;;3.70;;
56911;SDS011;42800;53.928;27.662;2023-04-24T02:42:23;5.63;;;4.07;;
56911;SDS011;42800;53.928;27.662;2023-04-24T02:44:49;7.85;;;3.85;;
56911;SDS011;42800;53.928;27.662;2023-04-24T02:47:16;9.23;;;4.25;;
56911;SDS011;42800;53.928;27.662;2023-04-24T02:49:42;6.85;;;3.85;;
56911;SDS011;42800;53.928;27.662;2023-04-24T02:52:08;9.70;;;4.22;;
56911;SDS011;42800;53.928;27.662;2023-04-24T02:54:35;6.93;;;4.25;;
56911;SDS011;42800;53.928;27.662;2023-04-24T02:57:01;6.75;;;4.13;;
56911;SDS011;42800;53.928;27.662;2023-04-24T02:59:27;13.07;;;3.90;;
56911;SDS011;42800;53.928;27.662;2023-04-24T03:01:53;7.32;;;3.88;;
56911;SDS011;42800;53.928;27.662;2023-04-24T03:04:20;9.18;;;3.40;;
56911;SDS011;42800;53.928;27.662;2023-04-24T03:06:46;8.90;;;3.80;;
56911;SDS011;42800;53.928;27.662;2023-04-24T03:09:12;7.03;;;4.05;;
56911;SDS011;42800;53.928;27.662;2023-04-24T03:11:38;6.97;;;3.88;;
56911;SDS011;42800;53.928;27.662;2023-04-24T03:14:04;7.13;;;4.38;;
56911;SDS011;42800;53.928;27.662;2023-04-24T03:16:30;7.22;;;3.47;;
56911;SDS011;42800;53.928;27.662;2023-04-24T03:18:56;7.95;;;3.83;;
56911;SDS011;42800;53.928;27.662;2023-04-24T03:21:22;4.40;;;3.50;;
56911;SDS011;42800;53.928;27.662;2023-04-24T03:23:49;6.07;;;4.03;;
56911;SDS011;42800;53.928;27.662;2023-04-24T03:26:14;16.55;;;4.00;;
56911;SDS011;42800;53.928;27.662;2023-04-24T03:28:40;8.60;;;3.53;;
56911;SDS011;42800;53.928;27.662;2023-04-24T03:31:06;7.47;;;3.38;;
56911;SDS011;42800;53.928;27.662;2023-04-24T03:33:32;5.00;;;3.47;;
56911;SDS011;42800;53.928;27.662;2023-04-24T03:35:58;7.68;;;3.70;;
56911;SDS011;42800;53.928;27.662;2023-04-24T03:38:24;7.70;;;3.28;;
56911;SDS011;42800;53.928;27.662;2023-04-24T03:40:50;5.75;;;3.10;;
56911;SDS011;42800;53.928;27.662;2023-04-24T03:43:16;11.23;;;3.35;;
56911;SDS011;42800;53.928;27.662;2023-04-24T03:45:42;8.48;;;3.85;;
56911;SDS011;42800;53.928;27.662;2023-04-24T03:48:08;6.20;;;3.30;;
56911;SDS011;42800;53.928;27.662;2023-04-24T03:50:34;5.97;;;2.88;;
56911;SDS011;42800;53.928;27.662;2023-04-24T03:53:00;10.23;;;3.20;;
56911;SDS011;42800;53.928;27.662;2023-04-24T03:55:26;5.38;;;3.00;;
56911;SDS011;42800;53.928;27.662;2023-04-24T03:57:53;6.75;;;3.42;;
56911;SDS011;42800;53.928;27.662;2023-04-24T04:00:19;9.13;;;3.72;;
56911;SDS011;42800;53.928;27.662;2023-04-24T04:02:46;5.40;;;3.20;;
56911;SDS011;42800;53.928;27.662;2023-04-24T04:05:11;8.52;;;3.58;;
56911;SDS011;42800;53.928;27.662;2023-04-24T04:07:37;5.47;;;3.40;;
56911;SDS011;42800;53.928;27.662;2023-04-24T04:10:04;6.93;;;3.17;;
56911;SDS011;42800;53.928;27.662;2023-04-24T04:12:32;5.30;;;3.28;;
56911;SDS011;42800;53.928;27.662;2023-04-24T04:14:58;7.20;;;3.13;;
56911;SDS011;42800;53.928;27.662;2023-04-24T04:17:24;7.60;;;3.40;;
56911;SDS011;42800;53.928;27.662;2023-04-24T04:19:50;7.47;;;3.33;;
56911;SDS011;42800;53.928;27.662;2023-04-24T04:22:16;5.28;;;3.40;;
56911;SDS011;42800;53.928;27.662;2023-04-24T04:24:42;6.63;;;3.17;;
56911;SDS011;42800;53.928;27.662;2023-04-24T04:27:08;4.68;;;3.42;;
56911;SDS011;42800;53.928;27.662;2023-04-24T04:29:34;9.63;;;3.55;;
56911;SDS011;42800;53.928;27.662;2023-04-24T04:32:01;8.48;;;3.17;;
56911;SDS011;42800;53.928;27.662;2023-04-24T04:34:27;7.00;;;3.53;;
56911;SDS011;42800;53.928;27.662;2023-04-24T04:36:54;6.53;;;3.53;;
56911;SDS011;42800;53.928;27.662;2023-04-24T04:39:19;7.90;;;3.60;;
56911;SDS011;42800;53.928;27.662;2023-04-24T04:41:46;5.25;;;3.42;;
56911;SDS011;42800;53.928;27.662;2023-04-24T04:44:13;8.95;;;3.45;;
56911;SDS011;42800;53.928;27.662;2023-04-24T04:46:40;11.65;;;4.07;;
56911;SDS011;42800;53.928;27.662;2023-04-24T04:49:07;11.90;;;4.15;;
56911;SDS011;42800;53.928;27.662;2023-04-24T04:51:33;9.02;;;3.63;;
56911;SDS011;42800;53.928;27.662;2023-04-24T04:53:59;5.10;;;3.40;;
56911;SDS011;42800;53.928;27.662;2023-04-24T04:56:25;7.32;;;3.50;;
56911;SDS011;42800;53.928;27.662;2023-04-24T04:58:51;5.28;;;3.30;;
56911;SDS011;42800;53.928;27.662;2023-04-24T05:01:17;4.82;;;3.33;;
56911;SDS011;42800;53.928;27.662;2023-04-24T05:03:43;7.55;;;3.65;;
56911;SDS011;42800;53.928;27.662;2023-04-24T05:06:10;9.07;;;3.58;;
56911;SDS011;42800;53.928;27.662;2023-04-24T05:08:35;5.97;;;3.30;;
56911;SDS011;42800;53.928;27.662;2023-04-24T05:11:01;10.20;;;3.90;;
56911;SDS011;42800;53.928;27.662;2023-04-24T05:13:27;14.15;;;4.18;;
56911;SDS011;42800;53.928;27.662;2023-04-24T05:15:53;9.63;;;3.63;;
56911;SDS011;42800;53.928;27.662;2023-04-24T05:18:19;7.57;;;3.63;;
56911;SDS011;42800;53.928;27.662;2023-04-24T05:20:45;11.07;;;3.83;;
56911;SDS011;42800;53.928;27.662;2023-04-24T05:23:12;8.88;;;3.70;;
56911;SDS011;42800;53.928;27.662;2023-04-24T05:25:38;4.97;;;3.80;;
56911;SDS011;42800;53.928;27.662;2023-04-24T05:28:05;7.28;;;3.88;;
56911;SDS011;42800;53.928;27.662;2023-04-24T05:30:31;4.57;;;3.50;;
56911;SDS011;42800;53.928;27.662;2023-04-24T05:32:56;7.43;;;3.60;;
56911;SDS011;42800;53.928;27.662;2023-04-24T05:35:22;7.85;;;3.75;;
56911;SDS011;42800;53.928;27.662;2023-04-24T05:37:48;7.53;;;3.20;;
56911;SDS011;42800;53.928;27.662;2023-04-24T05:40:15;6.90;;;3.17;;
56911;SDS011;42800;53.928;27.662;2023-04-24T05:42:41;7.25;;;3.42;;
56911;SDS011;42800;53.928;27.662;2023-04-24T05:45:07;8.30;;;3.28;;
56911;SDS011;42800;53.928;27.662;2023-04-24T05:47:37;7.65;;;3.42;;
56911;SDS011;42800;53.928;27.662;2023-04-24T05:50:03;7.70;;;3.47;;
56911;SDS011;42800;53.928;27.662;2023-04-24T05:52:29;5.88;;;3.45;;
56911;SDS011;42800;53.928;27.662;2023-04-24T05:54:55;8.63;;;3.72;;
56911;SDS011;42800;53.928;27.662;2023-04-24T05:57:22;9.60;;;3.78;;
56911;SDS011;42800;53.928;27.662;2023-04-24T05:59:48;11.18;;;3.70;;
56911;SDS011;42800;53.928;27.662;2023-04-24T06:02:14;8.63;;;3.85;;
56911;SDS011;42800;53.928;27.662;2023-04-24T06:04:40;11.68;;;4.00;;
56911;SDS011;42800;53.928;27.662;2023-04-24T06:07:06;7.65;;;3.88;;
56911;SDS011;42800;53.928;27.662;2023-04-24T06:09:32;11.65;;;6.45;;
56911;SDS011;42800;53.928;27.662;2023-04-24T06:11:58;15.63;;;4.57;;
56911;SDS011;42800;53.928;27.662;2023-04-24T06:14:25;11.73;;;4.60;;
56911;SDS011;42800;53.928;27.662;2023-04-24T06:16:51;10.50;;;3.55;;
56911;SDS011;42800;53.928;27.662;2023-04-24T06:19:17;7.18;;;4.20;;
56911;SDS011;42800;53.928;27.662;2023-04-24T06:21:43;7.07;;;4.28;;
56911;SDS011;42800;53.928;27.662;2023-04-24T06:24:09;6.72;;;3.60;;
56911;SDS011;42800;53.928;27.662;2023-04-24T06:26:35;6.60;;;3.72;;
56911;SDS011;42800;53.928;27.662;2023-04-24T06:29:01;5.03;;;3.30;;
56911;SDS011;42800;53.928;27.662;2023-04-24T06:31:28;5.13;;;3.30;;
56911;SDS011;42800;53.928;27.662;2023-04-24T06:33:53;5.25;;;3.20;;
56911;SDS011;42800;53.928;27.662;2023-04-24T06:36:19;8.48;;;3.40;;
56911;SDS011;42800;53.928;27.662;2023-04-24T06:38:45;4.93;;;2.95;;
56911;SDS011;42800;53.928;27.662;2023-04-24T06:41:11;5.03;;;2.70;;
56911;SDS011;42800;53.928;27.662;2023-04-24T06:43:38;6.95;;;3.70;;
56911;SDS011;42800;53.928;27.662;2023-04-24T06:46:04;8.07;;;3.35;;
56911;SDS011;42800;53.928;27.662;2023-04-24T06:48:30;14.32;;;3.47;;
56911;SDS011;42800;53.928;27.662;2023-04-24T06:50:56;6.95;;;2.85;;
56911;SDS011;42800;53.928;27.662;2023-04-24T06:53:22;3.83;;;3.20;;
56911;SDS011;42800;53.928;27.662;2023-04-24T06:55:48;12.60;;;3.50;;
56911;SDS011;42800;53.928;27.662;2023-04-24T06:58:14;13.90;;;3.67;;
56911;SDS011;42800;53.928;27.662;2023-04-24T07:00:41;7.60;;;3.13;;
56911;SDS011;42800;53.928;27.662;2023-04-24T07:03:06;8.50;;;3.47;;
56911;SDS011;42800;53.928;27.662;2023-04-24T07:05:33;9.60;;;4.15;;
56911;SDS011;42800;53.928;27.662;2023-04-24T07:08:00;14.38;;;3.75;;
56911;SDS011;42800;53.928;27.662;2023-04-24T07:10:26;8.38;;;4.32;;
56911;SDS011;42800;53.928;27.662;2023-04-24T07:12:53;11.27;;;3.35;;
56911;SDS011;42800;53.928;27.662;2023-04-24T07:15:19;10.30;;;2.80;;
56911;SDS011;42800;53.928;27.662;2023-04-24T07:17:45;4.35;;;2.60;;
56911;SDS011;42800;53.928;27.662;2023-04-24T07:20:11;9.73;;;3.88;;
56911;SDS011;42800;53.928;27.662;2023-04-24T07:22:40;4.35;;;3.60;;
56911;SDS011;42800;53.928;27.662;2023-04-24T07:25:06;7.22;;;3.45;;
56911;SDS011;42800;53.928;27.662;2023-04-24T07:27:33;7.75;;;3.78;;
56911;SDS011;42800;53.928;27.662;2023-04-24T07:30:00;6.30;;;4.40;;
56911;SDS011;42800;53.928;27.662;2023-04-24T07:32:26;5.95;;;3.40;;
56911;SDS011;42800;53.928;27.662;2023-04-24T07:34:52;8.77;;;3.38;;
56911;SDS011;42800;53.928;27.662;2023-04-24T07:37:18;7.57;;;3.50;;
56911;SDS011;42800;53.928;27.662;2023-04-24T07:39:45;6.10;;;3.78;;
56911;SDS011;42800;53.928;27.662;2023-04-24T07:42:11;6.53;;;3.58;;
56911;SDS011;42800;53.928;27.662;2023-04-24T07:44:37;10.27;;;3.22;;
56911;SDS011;42800;53.928;27.662;2023-04-24T07:47:03;10.90;;;3.17;;
56911;SDS011;42800;53.928;27.662;2023-04-24T07:49:29;8.27;;;3.47;;
56911;SDS011;42800;53.928;27.662;2023-04-24T07:51:55;5.55;;;3.22;;
56911;SDS011;42800;53.928;27.662;2023-04-24T07:54:21;7.88;;;3.22;;
56911;SDS011;42800;53.928;27.662;2023-04-24T07:56:48;4.32;;;3.20;;
56911;SDS011;42800;53.928;27.662;2023-04-24T07:59:14;3.13;;;2.70;;
56911;SDS011;42800;53.928;27.662;2023-04-24T08:01:40;4.78;;;2.50;;
56911;SDS011;42800;53.928;27.662;2023-04-24T08:04:06;4.75;;;2.85;;
56911;SDS011;42800;53.928;27.662;2023-04-24T08:06:33;14.30;;;2.47;;
56911;SDS011;42800;53.928;27.662;2023-04-24T08:08:59;7.45;;;2.65;;
56911;SDS011;42800;53.928;27.662;2023-04-24T08:11:26;6.93;;;2.40;;
56911;SDS011;42800;53.928;27.662;2023-04-24T08:13:52;4.60;;;2.40;;
56911;SDS011;42800;53.928;27.662;2023-04-24T08:16:19;8.27;;;2.40;;
56911;SDS011;42800;53.928;27.662;2023-04-24T08:18:45;4.93;;;1.88;;
56911;SDS011;42800;53.928;27.662;2023-04-24T08:21:11;5.25;;;2.17;;
56911;SDS011;42800;53.928;27.662;2023-04-24T08:23:42;13.85;;;2.55;;
56911;SDS011;42800;53.928;27.662;2023-04-24T08:26:08;6.63;;;1.92;;
56911;SDS011;42800;53.928;27.662;2023-04-24T08:28:33;4.45;;;2.25;;
56911;SDS011;42800;53.928;27.662;2023-04-24T08:31:00;1.60;;;1.48;;
56911;SDS011;42800;53.928;27.662;2023-04-24T08:33:26;2.65;;;2.20;;
56911;SDS011;42800;53.928;27.662;2023-04-24T08:35:52;3.67;;;2.28;;
56911;SDS011;42800;53.928;27.662;2023-04-24T08:38:18;4.15;;;2.10;;
56911;SDS011;42800;53.928;27.662;2023-04-24T08:40:44;8.95;;;2.22;;
56911;SDS011;42800;53.928;27.662;2023-04-24T08:43:13;2.92;;;1.73;;
56911;SDS011;42800;53.928;27.662;2023-04-24T08:45:40;3.33;;;2.30;;
56911;SDS011;42800;53.928;27.662;2023-04-24T08:48:06;3.35;;;2.10;;
56911;SDS011;42800;53.928;27.662;2023-04-24T08:50:32;3.83;;;2.20;;
56911;SDS011;42800;53.928;27.662;2023-04-24T08:53:00;2.42;;;2.00;;
56911;SDS011;42800;53.928;27.662;2023-04-24T08:55:27;10.18;;;2.38;;
56911;SDS011;42800;53.928;27.662;2023-04-24T08:57:56;7.47;;;2.25;;
56911;SDS011;42800;53.928;27.662;2023-04-24T09:00:23;5.35;;;2.20;;
56911;SDS011;42800;53.928;27.662;2023-04-24T09:02:49;8.40;;;2.22;;
56911;SDS011;42800;53.928;27.662;2023-04-24T09:05:16;5.38;;;1.88;;
56911;SDS011;42800;53.928;27.662;2023-04-24T09:07:44;2.88;;;2.10;;
56911;SDS011;42800;53.928;27.662;2023-04-24T09:10:11;5.70;;;2.40;;
56911;SDS011;42800;53.928;27.662;2023-04-24T09:12:38;3.70;;;2.40;;
56911;SDS011;42800;53.928;27.662;2023-04-24T09:15:04;4.88;;;2.22;;
56911;SDS011;42800;53.928;27.662;2023-04-24T09:17:32;3.67;;;2.17;;
56911;SDS011;42800;53.928;27.662;2023-04-24T09:19:59;4.43;;;2.00;;
56911;SDS011;42800;53.928;27.662;2023-04-24T09:22:25;2.70;;;2.20;;
56911;SDS011;42800;53.928;27.662;2023-04-24T09:24:59;5.85;;;2.20;;
56911;SDS011;42800;53.928;27.662;2023-04-24T09:27:27;3.70;;;2.28;;
56911;SDS011;42800;53.928;27.662;2023-04-24T09:29:54;2.22;;;2.00;;
56911;SDS011;42800;53.928;27.662;2023-04-24T09:32:20;3.00;;;2.15;;
56911;SDS011;42800;53.928;27.662;2023-04-24T09:34:47;8.30;;;2.33;;
56911;SDS011;42800;53.928;27.662;2023-04-24T09:37:15;3.35;;;2.13;;
56911;SDS011;42800;53.928;27.662;2023-04-24T09:40:06;2.22;;;1.80;;
56911;SDS011;42800;53.928;27.662;2023-04-24T09:42:33;3.08;;;2.08;;
56911;SDS011;42800;53.928;27.662;2023-04-24T09:44:59;7.63;;;2.28;;
56911;SDS011;42800;53.928;27.662;2023-04-24T09:47:25;2.58;;;2.38;;
56911;SDS011;42800;53.928;27.662;2023-04-24T09:49:51;3.67;;;2.28;;
56911;SDS011;42800;53.928;27.662;2023-04-24T09:52:23;3.50;;;2.33;;
56911;SDS011;42800;53.928;27.662;2023-04-24T09:54:53;3.20;;;2.10;;
56911;SDS011;42800;53.928;27.662;2023-04-24T09:57:19;8.13;;;2.35;;
56911;SDS011;42800;53.928;27.662;2023-04-24T09:59:45;5.25;;;2.22;;
56911;SDS011;42800;53.928;27.662;2023-04-24T10:02:16;4.10;;;2.20;;
56911;SDS011;42800;53.928;27.662;2023-04-24T10:04:53;8.65;;;2.42;;
56911;SDS011;42800;53.928;27.662;2023-04-24T10:07:20;3.78;;;2.20;;
56911;SDS011;42800;53.928;27.662;2023-04-24T10:09:46;2.28;;;2.05;;
56911;SDS011;42800;53.928;27.662;2023-04-24T10:12:13;4.03;;;2.10;;
56911;SDS011;42800;53.928;27.662;2023-04-24T10:14:40;7.32;;;2.10;;
56911;SDS011;42800;53.928;27.662;2023-04-24T10:17:06;5.03;;;1.98;;
56911;SDS011;42800;53.928;27.662;2023-04-24T10:19:33;6.13;;;1.90;;
56911;SDS011;42800;53.928;27.662;2023-04-24T10:22:00;2.90;;;1.88;;
56911;SDS011;42800;53.928;27.662;2023-04-24T10:24:27;4.45;;;2.05;;
56911;SDS011;42800;53.928;27.662;2023-04-24T10:26:54;3.60;;;2.20;;
56911;SDS011;42800;53.928;27.662;2023-04-24T10:29:22;2.67;;;1.85;;
56911;SDS011;42800;53.928;27.662;2023-04-24T10:31:49;2.00;;;1.73;;
56911;SDS011;42800;53.928;27.662;2023-04-24T10:34:16;6.05;;;1.70;;
56911;SDS011;42800;53.928;27.662;2023-04-24T10:36:46;2.55;;;1.65;;
56911;SDS011;42800;53.928;27.662;2023-04-24T10:39:16;1.70;;;1.58;;
56911;SDS011;42800;53.928;27.662;2023-04-24T10:41:42;1.40;;;1.35;;
56911;SDS011;42800;53.928;27.662;2023-04-24T10:44:09;3.05;;;1.65;;
56911;SDS011;42800;53.928;27.662;2023-04-24T10:46:37;2.50;;;2.10;;
56911;SDS011;42800;53.928;27.662;2023-04-24T10:49:03;1.60;;;1.50;;
56911;SDS011;42800;53.928;27.662;2023-04-24T10:54:23;3.60;;;1.65;;
56911;SDS011;42800;53.928;27.662;2023-04-24T10:56:50;2.20;;;1.30;;
56911;SDS011;42800;53.928;27.662;2023-04-24T10:59:23;3.60;;;2.35;;
56911;SDS011;42800;53.928;27.662;2023-04-24T11:01:53;5.45;;;2.42;;
56911;SDS011;42800;53.928;27.662;2023-04-24T11:04:28;1.60;;;1.50;;
56911;SDS011;42800;53.928;27.662;2023-04-24T11:06:55;6.60;;;2.10;;
56911;SDS011;42800;53.928;27.662;2023-04-24T11:09:21;3.05;;;1.77;;
56911;SDS011;42800;53.928;27.662;2023-04-24T11:11:46;2.53;;;1.95;;
56911;SDS011;42800;53.928;27.662;2023-04-24T11:14:14;3.22;;;1.60;;
56911;SDS011;42800;53.928;27.662;2023-04-24T11:16:43;3.58;;;1.60;;
56911;SDS011;42800;53.928;27.662;2023-04-24T11:19:18;3.00;;;2.00;;
56911;SDS011;42800;53.928;27.662;2023-04-24T11:21:46;2.80;;;1.58;;
56911;SDS011;42800;53.928;27.662;2023-04-24T11:24:27;5.78;;;1.75;;
56911;SDS011;42800;53.928;27.662;2023-04-24T11:26:56;4.75;;;2.40;;
56911;SDS011;42800;53.928;27.662;2023-04-24T11:29:37;1.95;;;1.75;;
56911;SDS011;42800;53.928;27.662;2023-04-24T11:32:14;2.13;;;1.80;;
56911;SDS011;42800;53.928;27.662;2023-04-24T11:34:44;2.08;;;1.75;;
56911;SDS011;42800;53.928;27.662;2023-04-24T11:37:12;3.28;;;1.70;;
56911;SDS011;42800;53.928;27.662;2023-04-24T11:39:38;2.22;;;1.52;;
56911;SDS011;42800;53.928;27.662;2023-04-24T11:42:04;2.97;;;1.77;;
56911;SDS011;42800;53.928;27.662;2023-04-24T11:44:32;2.40;;;1.92;;
56911;SDS011;42800;53.928;27.662;2023-04-24T11:46:59;1.88;;;1.77;;
56911;SDS011;42800;53.928;27.662;2023-04-24T11:49:25;1.67;;;1.58;;
56911;SDS011;42800;53.928;27.662;2023-04-24T11:51:55;2.83;;;1.77;;
56911;SDS011;42800;53.928;27.662;2023-04-24T11:54:21;1.70;;;1.60;;
56911;SDS011;42800;53.928;27.662;2023-04-24T11:56:47;2.03;;;1.70;;
56911;SDS011;42800;53.928;27.662;2023-04-24T11:59:14;2.90;;;1.85;;
56911;SDS011;42800;53.928;27.662;2023-04-24T12:01:43;9.73;;;1.85;;
56911;SDS011;42800;53.928;27.662;2023-04-24T12:04:10;3.83;;;2.33;;
56911;SDS011;42800;53.928;27.662;2023-04-24T12:06:36;3.88;;;1.70;;
56911;SDS011;42800;53.928;27.662;2023-04-24T12:09:03;5.05;;;2.13;;
56911;SDS011;42800;53.928;27.662;2023-04-24T12:11:29;1.67;;;1.58;;
56911;SDS011;42800;53.928;27.662;2023-04-24T12:13:55;2.47;;;1.80;;
56911;SDS011;42800;53.928;27.662;2023-04-24T12:16:21;2.97;;;1.67;;
56911;SDS011;42800;53.928;27.662;2023-04-24T12:18:50;7.40;;;2.08;;
56911;SDS011;42800;53.928;27.662;2023-04-24T12:21:17;4.22;;;1.67;;
56911;SDS011;42800;53.928;27.662;2023-04-24T12:23:44;4.00;;;1.60;;
56911;SDS011;42800;53.928;27.662;2023-04-24T12:26:11;3.78;;;1.80;;
56911;SDS011;42800;53.928;27.662;2023-04-24T12:28:37;2.67;;;1.55;;
56911;SDS011;42800;53.928;27.662;2023-04-24T12:31:04;2.28;;;1.55;;
56911;SDS011;42800;53.928;27.662;2023-04-24T12:33:32;6.35;;;1.90;;
56911;SDS011;42800;53.928;27.662;2023-04-24T12:35:59;1.98;;;1.65;;
56911;SDS011;42800;53.928;27.662;2023-04-24T12:38:26;4.20;;;1.80;;
56911;SDS011;42800;53.928;27.662;2023-04-24T12:41:01;4.28;;;2.42;;
56911;SDS011;42800;53.928;27.662;2023-04-24T12:43:29;4.65;;;2.05;;
56911;SDS011;42800;53.928;27.662;2023-04-24T12:45:55;3.88;;;1.77;;
56911;SDS011;42800;53.928;27.662;2023-04-24T12:48:22;3.53;;;2.22;;
56911;SDS011;42800;53.928;27.662;2023-04-24T12:50:48;3.80;;;2.08;;
56911;SDS011;42800;53.928;27.662;2023-04-24T12:53:14;6.72;;;2.30;;
56911;SDS011;42800;53.928;27.662;2023-04-24T12:55:40;3.03;;;1.98;;
56911;SDS011;42800;53.928;27.662;2023-04-24T12:58:06;5.15;;;2.45;;
56911;SDS011;42800;53.928;27.662;2023-04-24T13:00:33;2.58;;;1.80;;
56911;SDS011;42800;53.928;27.662;2023-04-24T13:02:59;3.95;;;2.22;;
56911;SDS011;42800;53.928;27.662;2023-04-24T13:05:25;6.47;;;2.05;;
56911;SDS011;42800;53.928;27.662;2023-04-24T13:07:50;7.95;;;2.40;;
56911;SDS011;42800;53.928;27.662;2023-04-24T13:10:16;5.28;;;2.28;;
56911;SDS011;42800;53.928;27.662;2023-04-24T13:12:42;16.95;;;2.17;;
56911;SDS011;42800;53.928;27.662;2023-04-24T13:15:10;5.00;;;2.00;;
56911;SDS011;42800;53.928;27.662;2023-04-24T13:17:36;5.97;;;2.30;;
56911;SDS011;42800;53.928;27.662;2023-04-24T13:20:03;3.17;;;2.10;;
56911;SDS011;42800;53.928;27.662;2023-04-24T13:22:30;8.55;;;2.70;;
56911;SDS011;42800;53.928;27.662;2023-04-24T13:24:56;3.72;;;1.90;;
56911;SDS011;42800;53.928;27.662;2023-04-24T13:27:22;10.70;;;2.08;;
56911;SDS011;42800;53.928;27.662;2023-04-24T13:29:48;3.70;;;2.25;;
56911;SDS011;42800;53.928;27.662;2023-04-24T13:32:14;3.83;;;2.15;;
56911;SDS011;42800;53.928;27.662;2023-04-24T13:34:40;2.92;;;1.92;;
56911;SDS011;42800;53.928;27.662;2023-04-24T13:37:06;6.57;;;2.10;;
56911;SDS011;42800;53.928;27.662;2023-04-24T13:39:33;5.30;;;1.83;;
56911;SDS011;42800;53.928;27.662;2023-04-24T13:41:59;3.20;;;2.10;;
56911;SDS011;42800;53.928;27.662;2023-04-24T13:44:25;4.78;;;2.17;;
56911;SDS011;42800;53.928;27.662;2023-04-24T13:46:52;5.72;;;1.77;;
56911;SDS011;42800;53.928;27.662;2023-04-24T13:49:21;1.88;;;1.30;;
56911;SDS011;42800;53.928;27.662;2023-04-24T13:51:50;7.82;;;1.77;;
56911;SDS011;42800;53.928;27.662;2023-04-24T13:54:17;20.52;;;1.75;;
56911;SDS011;42800;53.928;27.662;2023-04-24T13:56:43;1.75;;;1.50;;
56911;SDS011;42800;53.928;27.662;2023-04-24T13:59:08;2.10;;;1.45;;
56911;SDS011;42800;53.928;27.662;2023-04-24T14:01:34;2.55;;;1.60;;
56911;SDS011;42800;53.928;27.662;2023-04-24T14:04:01;44.42;;;2.40;;
56911;SDS011;42800;53.928;27.662;2023-04-24T14:06:27;2.75;;;2.08;;
56911;SDS011;42800;53.928;27.662;2023-04-24T14:08:53;5.75;;;1.75;;
56911;SDS011;42800;53.928;27.662;2023-04-24T14:11:19;3.20;;;1.77;;
56911;SDS011;42800;53.928;27.662;2023-04-24T14:13:45;4.30;;;2.80;;
56911;SDS011;42800;53.928;27.662;2023-04-24T14:16:12;5.80;;;2.17;;
56911;SDS011;42800;53.928;27.662;2023-04-24T14:18:38;5.10;;;1.70;;
56911;SDS011;42800;53.928;27.662;2023-04-24T14:21:04;7.93;;;1.90;;
56911;SDS011;42800;53.928;27.662;2023-04-24T14:23:30;2.67;;;1.92;;
56911;SDS011;42800;53.928;27.662;2023-04-24T14:25:57;8.07;;;3.53;;
56911;SDS011;42800;53.928;27.662;2023-04-24T14:28:23;4.95;;;2.30;;
56911;SDS011;42800;53.928;27.662;2023-04-24T14:30:49;8.38;;;2.33;;
56911;SDS011;42800;53.928;27.662;2023-04-24T14:33:15;5.95;;;1.80;;